createdAt,value
2018-01-28T00:01:39.988Z,22.10
2018-01-28T00:04:09.087Z,17.65
2018-01-28T00:06:37.356Z,18.65
2018-01-28T00:09:05.081Z,19.75
2018-01-28T00:11:33.333Z,24.37
2018-01-28T00:14:00.961Z,21.33
2018-01-28T00:16:29.361Z,21.08
2018-01-28T00:18:57.902Z,23.17
2018-01-28T00:21:25.513Z,25.62
2018-01-28T00:23:53.156Z,21.48
2018-01-28T00:26:20.765Z,24.67
2018-01-28T00:28:48.429Z,24.77
2018-01-28T00:31:16.138Z,20.77
2018-01-28T00:33:43.823Z,19.40
2018-01-28T00:36:12.196Z,20.17
2018-01-28T00:38:39.843Z,21.85
2018-01-28T00:41:07.452Z,21.12
2018-01-28T00:43:35.060Z,21.05
2018-01-28T00:46:02.908Z,20.95
2018-01-28T00:48:31.289Z,18.98
2018-01-28T00:50:58.904Z,17.02
2018-01-28T00:53:26.545Z,18.37
2018-01-28T00:55:54.156Z,15.77
2018-01-28T00:58:21.800Z,14.27
2018-01-28T01:00:50.200Z,11.05
2018-01-28T01:03:18.574Z,10.25
2018-01-28T01:05:46.184Z,11.98
2018-01-28T01:08:13.827Z,13.65
2018-01-28T01:10:41.440Z,9.45
2018-01-28T01:13:09.049Z,12.48
2018-01-28T01:15:36.689Z,8.85
2018-01-28T01:18:04.297Z,9.00
2018-01-28T01:20:31.896Z,9.95
2018-01-28T01:22:59.532Z,9.32
2018-01-28T01:25:27.137Z,8.68
2018-01-28T01:27:54.776Z,11.00
2018-01-28T01:30:22.417Z,9.13
2018-01-28T01:32:50.023Z,8.75
2018-01-28T01:35:17.625Z,10.98
2018-01-28T01:37:45.261Z,9.18
2018-01-28T01:40:12.865Z,10.68
2018-01-28T01:42:40.481Z,10.60
2018-01-28T01:45:08.120Z,10.52
2018-01-28T01:47:35.720Z,8.60
2018-01-28T01:50:04.096Z,9.85
2018-01-28T01:52:32.504Z,9.88
2018-01-28T01:55:01.588Z,8.60
2018-01-28T01:57:29.189Z,9.35
2018-01-28T01:59:57.596Z,9.20
2018-01-28T02:02:25.216Z,9.98
2018-01-28T02:04:52.822Z,9.40
2018-01-28T02:07:21.230Z,7.43
2018-01-28T02:09:48.830Z,8.73
2018-01-28T02:12:16.424Z,8.95
2018-01-28T02:14:44.061Z,8.10
2018-01-28T02:17:11.673Z,10.50
2018-01-28T02:19:39.277Z,9.98
2018-01-28T02:22:07.680Z,8.98
2018-01-28T02:24:36.048Z,8.75
2018-01-28T02:27:03.664Z,9.20
2018-01-28T02:29:31.304Z,7.90
2018-01-28T02:31:59.676Z,7.20
2018-01-28T02:34:27.280Z,9.20
2018-01-28T02:36:55.684Z,9.85
2018-01-28T02:39:23.283Z,8.40
2018-01-28T02:41:50.890Z,7.93
2018-01-28T02:44:18.530Z,8.88
2018-01-28T02:46:46.128Z,7.15
2018-01-28T02:49:13.728Z,9.63
2018-01-28T02:51:42.136Z,9.20
2018-01-28T02:54:10.500Z,8.55
2018-01-28T02:56:38.109Z,7.95
2018-01-28T02:59:05.749Z,7.20
2018-01-28T03:01:33.353Z,6.95
2018-01-28T03:04:00.957Z,6.62
2018-01-28T03:06:28.636Z,7.93
2018-01-28T03:08:56.239Z,8.20
2018-01-28T03:11:23.856Z,8.52
2018-01-28T03:13:51.567Z,7.22
2018-01-28T03:16:19.173Z,8.30
2018-01-28T03:18:46.773Z,7.20
2018-01-28T03:21:14.484Z,7.53
2018-01-28T03:23:42.084Z,7.37
2018-01-28T03:26:09.688Z,8.45
2018-01-28T03:28:38.092Z,7.90
2018-01-28T03:31:05.694Z,7.65
2018-01-28T03:33:33.307Z,6.20
2018-01-28T03:36:00.949Z,6.25
2018-01-28T03:38:28.556Z,6.62
2018-01-28T03:40:56.159Z,6.10
2018-01-28T03:43:23.796Z,6.80
2018-01-28T03:45:51.393Z,7.00
2018-01-28T03:48:19.761Z,7.30
2018-01-28T03:50:47.397Z,6.90
2018-01-28T03:53:14.992Z,7.62
2018-01-28T03:55:42.597Z,7.82
2018-01-28T03:58:11.005Z,7.53
2018-01-28T04:00:38.604Z,8.02
2018-01-28T04:03:06.225Z,9.40
2018-01-28T04:05:33.861Z,7.12
2018-01-28T04:08:01.468Z,7.28
2018-01-28T04:10:29.074Z,7.82
2018-01-28T04:12:56.713Z,7.22
2018-01-28T04:15:24.308Z,8.15
2018-01-28T04:17:52.681Z,7.70
2018-01-28T04:20:20.324Z,8.40
2018-01-28T04:22:47.925Z,9.02
2018-01-28T04:25:15.524Z,8.73
2018-01-28T04:27:43.925Z,8.80
2018-01-28T04:30:11.525Z,8.40
2018-01-28T04:32:39.137Z,8.55
2018-01-28T04:35:06.787Z,10.80
2018-01-28T04:37:34.388Z,7.65
2018-01-28T04:40:01.993Z,8.43
2018-01-28T04:42:29.632Z,9.02
2018-01-28T04:44:57.292Z,7.82
2018-01-28T04:47:24.901Z,8.07
2018-01-28T04:49:53.315Z,7.97
2018-01-28T04:52:20.921Z,9.00
2018-01-28T04:54:48.520Z,8.70
2018-01-28T04:57:16.156Z,8.48
2018-01-28T04:59:43.760Z,8.00
2018-01-28T05:02:11.364Z,7.68
2018-01-28T05:04:39.777Z,8.98
2018-01-28T05:07:07.381Z,7.03
2018-01-28T05:09:35.008Z,9.85
2018-01-28T05:12:03.415Z,8.75
2018-01-28T05:14:31.017Z,6.90
2018-01-28T05:16:58.616Z,8.10
2018-01-28T05:19:26.245Z,8.35
2018-01-28T05:21:53.851Z,9.02
2018-01-28T05:24:21.446Z,8.60
2018-01-28T05:26:49.087Z,9.90
2018-01-28T05:29:16.697Z,10.20
2018-01-28T05:31:44.301Z,11.07
2018-01-28T05:34:11.936Z,9.25
2018-01-28T05:36:39.536Z,8.88
2018-01-28T05:39:07.903Z,9.32
2018-01-28T05:41:35.548Z,9.23
2018-01-28T05:44:03.149Z,9.30
2018-01-28T05:46:30.748Z,8.95
2018-01-28T05:48:58.392Z,9.48
2018-01-28T05:51:25.997Z,11.07
2018-01-28T05:53:54.357Z,8.80
2018-01-28T05:56:21.997Z,10.05
2018-01-28T05:58:49.609Z,9.43
2018-01-28T06:01:17.217Z,11.20
2018-01-28T06:03:44.856Z,12.57
2018-01-28T06:06:12.457Z,11.63
2018-01-28T06:08:40.821Z,9.95
2018-01-28T06:11:08.462Z,9.80
2018-01-28T06:13:36.069Z,10.80
2018-01-28T06:16:03.677Z,9.70
2018-01-28T06:18:31.320Z,10.35
2018-01-28T06:20:58.929Z,10.70
2018-01-28T06:23:26.537Z,13.35
2018-01-28T06:25:54.177Z,10.50
2018-01-28T06:28:21.788Z,9.52
2018-01-28T06:30:49.388Z,10.23
2018-01-28T06:33:17.021Z,13.07
2018-01-28T06:35:44.624Z,9.60
2018-01-28T06:38:12.228Z,9.38
2018-01-28T06:40:40.633Z,9.80
2018-01-28T06:43:08.237Z,10.95
2018-01-28T06:45:35.842Z,9.48
2018-01-28T06:48:03.477Z,9.10
2018-01-28T06:50:31.076Z,10.80
2018-01-28T06:52:58.676Z,8.93
2018-01-28T06:55:27.081Z,9.50
2018-01-28T06:57:54.683Z,11.38
2018-01-28T07:00:22.280Z,9.25
2018-01-28T07:02:49.924Z,7.78
2018-01-28T07:05:17.534Z,7.50
2018-01-28T07:07:45.133Z,8.10
2018-01-28T07:10:12.769Z,6.95
2018-01-28T07:12:40.368Z,6.68
2018-01-28T07:15:07.967Z,7.10
2018-01-28T07:17:36.372Z,5.87
2018-01-28T07:20:03.985Z,8.48
2018-01-28T07:22:31.590Z,7.53
2018-01-28T07:24:59.224Z,6.68
2018-01-28T07:27:26.901Z,7.87
2018-01-28T07:29:54.517Z,7.35
2018-01-28T07:32:22.912Z,7.10
2018-01-28T07:34:51.282Z,7.22
2018-01-28T07:37:19.646Z,7.28
2018-01-28T07:39:47.457Z,7.97
2018-01-28T07:42:15.187Z,9.65
2018-01-28T07:44:42.773Z,16.17
2018-01-28T07:47:10.425Z,9.73
2018-01-28T07:49:41.630Z,11.70
2018-01-28T07:52:09.333Z,6.30
2018-01-28T07:54:37.754Z,10.95
2018-01-28T07:57:05.361Z,6.80
2018-01-28T07:59:32.990Z,7.00
2018-01-28T08:02:00.688Z,6.72
2018-01-28T08:04:28.308Z,6.68
2018-01-28T08:06:55.913Z,8.85
2018-01-28T08:09:23.554Z,7.70
2018-01-28T08:14:52.741Z,6.18
2018-01-28T08:17:20.405Z,6.82
2018-01-28T08:19:48.011Z,6.97
2018-01-28T08:22:15.664Z,5.75
2018-01-28T08:24:43.278Z,6.90
2018-01-28T08:27:21.181Z,6.37
2018-01-28T08:29:48.785Z,5.82
2018-01-28T08:32:16.428Z,6.30
2018-01-28T08:34:44.073Z,6.18
2018-01-28T08:37:11.677Z,5.82
2018-01-28T08:39:39.280Z,6.40
2018-01-28T08:42:06.931Z,11.00
2018-01-28T08:44:34.534Z,5.70
2018-01-28T08:47:02.145Z,9.40
2018-01-28T08:49:29.977Z,10.65
2018-01-28T08:51:57.572Z,5.43
2018-01-28T08:54:25.957Z,6.25
2018-01-28T08:56:54.364Z,5.18
2018-01-28T08:59:22.724Z,5.57
2018-01-28T09:01:50.325Z,5.07
2018-01-28T09:04:18.729Z,5.32
2018-01-28T09:06:46.330Z,5.60
2018-01-28T09:09:13.933Z,6.28
2018-01-28T09:11:41.569Z,5.35
2018-01-28T09:14:09.175Z,8.02
2018-01-28T09:16:36.780Z,5.50
2018-01-28T09:19:05.176Z,5.00
2018-01-28T09:21:33.547Z,4.47
2018-01-28T09:24:01.186Z,4.50
2018-01-28T09:26:28.858Z,6.10
2018-01-28T09:28:56.457Z,5.55
2018-01-28T09:31:24.058Z,4.25
2018-01-28T09:33:52.465Z,4.43
2018-01-28T09:36:20.076Z,3.30
2018-01-28T09:38:47.677Z,4.00
2018-01-28T09:41:15.308Z,3.78
2018-01-28T09:43:42.918Z,3.65
2018-01-28T09:46:11.317Z,3.20
2018-01-28T09:48:38.956Z,6.28
2018-01-28T09:51:06.557Z,2.70
2018-01-28T09:53:34.160Z,3.12
2018-01-28T09:56:02.566Z,3.28
2018-01-28T09:58:30.169Z,2.97
2018-01-28T10:00:58.461Z,4.70
2018-01-28T10:03:26.105Z,3.15
2018-01-28T10:05:53.709Z,3.70
2018-01-28T10:08:21.389Z,2.65
2018-01-28T10:10:49.035Z,3.28
2018-01-28T10:13:16.641Z,2.78
2018-01-28T10:15:44.250Z,3.03
2018-01-28T10:18:12.661Z,2.47
2018-01-28T10:20:40.261Z,3.22
2018-01-28T10:23:07.862Z,3.25
2018-01-28T10:25:35.500Z,3.15
2018-01-28T10:28:03.109Z,2.70
2018-01-28T10:30:30.717Z,3.10
2018-01-28T10:32:59.128Z,2.60
2018-01-28T10:35:27.564Z,2.60
2018-01-28T10:37:55.224Z,2.75
2018-01-28T10:40:22.872Z,3.03
2018-01-28T10:42:50.484Z,2.67
2018-01-28T10:45:18.097Z,3.95
2018-01-28T10:47:46.500Z,2.60
2018-01-28T10:50:14.111Z,2.90
2018-01-28T10:52:41.712Z,2.45
2018-01-28T10:55:09.362Z,2.20
2018-01-28T10:57:36.961Z,3.30
2018-01-28T11:00:04.568Z,3.30
2018-01-28T11:02:32.200Z,2.97
2018-01-28T11:04:59.805Z,2.67
2018-01-28T11:07:28.417Z,2.47
2018-01-28T11:09:56.057Z,2.60
2018-01-28T11:12:23.683Z,2.90
2018-01-28T11:14:51.296Z,2.58
2018-01-28T11:17:18.951Z,2.95
2018-01-28T11:19:46.589Z,2.22
2018-01-28T11:22:14.191Z,2.42
2018-01-28T11:24:41.844Z,1.83
2018-01-28T11:27:09.466Z,2.35
2018-01-28T11:29:37.161Z,2.67
2018-01-28T11:32:04.900Z,2.80
2018-01-28T11:34:32.505Z,2.40
2018-01-28T11:37:01.477Z,2.10
2018-01-28T11:39:29.122Z,2.20
2018-01-28T11:41:56.732Z,2.78
2018-01-28T11:44:24.340Z,2.42
2018-01-28T11:46:52.749Z,2.60
2018-01-28T11:49:20.359Z,2.12
2018-01-28T11:51:47.961Z,2.00
2018-01-28T11:54:15.622Z,2.35
2018-01-28T11:56:43.357Z,3.70
2018-01-28T11:59:10.960Z,2.37
2018-01-28T12:01:38.610Z,2.20
2018-01-28T12:04:06.213Z,2.67
2018-01-28T12:06:33.843Z,2.65
2018-01-28T12:09:01.488Z,2.50
2018-01-28T12:11:29.126Z,5.50
2018-01-28T12:13:56.736Z,2.72
2018-01-28T12:16:24.401Z,2.60
2018-01-28T12:18:52.019Z,2.03
2018-01-28T12:21:19.661Z,2.17
2018-01-28T12:23:47.336Z,2.35
2018-01-28T12:26:14.937Z,3.78
2018-01-28T12:28:42.648Z,2.58
2018-01-28T12:31:10.290Z,2.37
2018-01-28T12:33:37.896Z,2.75
2018-01-28T12:36:05.492Z,4.80
2018-01-28T12:38:33.134Z,3.35
2018-01-28T12:41:00.742Z,1.90
2018-01-28T12:43:28.348Z,1.70
2018-01-28T12:45:56.791Z,1.58
2018-01-28T12:48:24.388Z,2.30
2018-01-28T12:50:51.989Z,1.65
2018-01-28T12:53:19.636Z,2.97
2018-01-28T12:55:47.246Z,2.12
2018-01-28T12:58:14.849Z,2.03
2018-01-28T13:00:42.525Z,1.92
2018-01-28T13:03:10.126Z,1.40
2018-01-28T13:05:37.720Z,1.83
2018-01-28T13:08:06.132Z,2.00
2018-01-28T13:10:33.749Z,1.80
2018-01-28T13:13:01.353Z,1.30
2018-01-28T13:15:29.800Z,2.00
2018-01-28T13:17:57.409Z,2.47
2018-01-28T13:20:25.021Z,2.45
2018-01-28T13:22:52.661Z,2.40
2018-01-28T13:25:20.269Z,2.30
2018-01-28T13:27:47.872Z,1.87
2018-01-28T13:30:15.845Z,1.37
2018-01-28T13:32:43.884Z,1.77
2018-01-28T13:35:13.600Z,2.58
2018-01-28T13:37:41.256Z,1.35
2018-01-28T13:40:09.309Z,1.37
2018-01-28T13:42:37.404Z,1.92
2018-01-28T13:45:05.036Z,1.45
2018-01-28T13:47:35.643Z,2.05
2018-01-28T13:50:04.081Z,2.33
2018-01-28T13:52:32.128Z,1.75
2018-01-28T13:54:59.764Z,1.87
2018-01-28T13:57:27.404Z,1.62
2018-01-28T13:59:56.428Z,1.67
2018-01-28T14:02:24.030Z,1.95
2018-01-28T14:04:51.929Z,1.70
2018-01-28T14:07:19.581Z,1.55
2018-01-28T14:09:47.184Z,1.70
2018-01-28T14:12:15.025Z,1.50
2018-01-28T14:14:42.628Z,1.65
2018-01-28T14:17:10.922Z,1.85
2018-01-28T14:19:38.555Z,1.60
2018-01-28T14:22:06.249Z,2.62
2018-01-28T14:24:34.982Z,2.35
2018-01-28T14:27:02.747Z,1.37
2018-01-28T14:29:31.313Z,1.48
2018-01-28T14:31:59.153Z,1.70
2018-01-28T14:34:27.677Z,2.75
2018-01-28T14:36:55.595Z,1.45
2018-01-28T14:39:23.675Z,1.25
2018-01-28T14:41:52.154Z,1.80
2018-01-28T14:44:20.009Z,1.30
2018-01-28T14:46:47.621Z,2.85
2018-01-28T14:49:15.760Z,2.62
2018-01-28T14:51:43.803Z,4.00
2018-01-28T14:54:11.809Z,2.12
2018-01-28T14:56:40.225Z,1.60
2018-01-28T14:59:07.824Z,4.65
2018-01-28T15:01:36.952Z,5.32
2018-01-28T15:04:04.917Z,1.80
2018-01-28T15:06:33.977Z,2.12
2018-01-28T15:09:02.934Z,1.52
2018-01-28T15:11:30.996Z,2.05
2018-01-28T15:13:58.607Z,2.20
2018-01-28T15:16:26.485Z,1.77
2018-01-28T15:18:54.546Z,2.75
2018-01-28T15:21:23.223Z,2.87
2018-01-28T15:23:51.220Z,3.40
2018-01-28T15:26:18.861Z,2.03
2018-01-28T15:28:47.235Z,2.58
2018-01-28T15:31:14.862Z,2.70
2018-01-28T15:33:42.497Z,1.58
2018-01-28T15:36:10.876Z,3.35
2018-01-28T15:38:39.253Z,1.90
2018-01-28T15:41:06.891Z,3.53
2018-01-28T15:43:34.501Z,2.55
2018-01-28T15:46:02.104Z,3.55
2018-01-28T15:48:29.753Z,2.30
2018-01-28T15:50:58.143Z,2.50
2018-01-28T15:53:25.749Z,2.35
2018-01-28T15:55:53.389Z,2.42
2018-01-28T15:58:21.000Z,3.60
2018-01-28T16:00:48.637Z,4.65
2018-01-28T16:03:16.278Z,3.12
2018-01-28T16:05:43.885Z,3.08
2018-01-28T16:08:11.490Z,3.15
2018-01-28T16:10:39.144Z,3.45
2018-01-28T16:13:07.513Z,4.75
2018-01-28T16:15:35.124Z,3.00
2018-01-28T16:18:03.531Z,3.70
2018-01-28T16:20:31.138Z,3.67
2018-01-28T16:22:58.745Z,3.20
2018-01-28T16:25:26.483Z,4.47
2018-01-28T16:27:54.085Z,2.97
2018-01-28T16:30:21.822Z,3.83
2018-01-28T16:32:49.481Z,5.20
2018-01-28T16:35:17.084Z,4.30
2018-01-28T16:37:44.859Z,3.70
2018-01-28T16:40:12.529Z,2.40
2018-01-28T16:42:40.128Z,3.65
2018-01-28T16:45:07.732Z,5.25
2018-01-28T16:47:36.132Z,3.37
2018-01-28T16:50:04.504Z,3.45
2018-01-28T16:52:32.885Z,3.90
2018-01-28T16:55:00.530Z,4.18
2018-01-28T16:57:28.132Z,3.75
2018-01-28T16:59:55.738Z,3.15
2018-01-28T17:02:23.379Z,3.50
2018-01-28T17:04:50.985Z,3.95
2018-01-28T17:07:18.591Z,2.85
2018-01-28T17:09:46.229Z,2.33
2018-01-28T17:12:14.597Z,4.40
2018-01-28T17:14:42.198Z,4.47
2018-01-28T17:17:09.841Z,4.40
2018-01-28T17:19:37.448Z,3.60
2018-01-28T17:22:05.060Z,4.20
2018-01-28T17:24:32.693Z,3.10
2018-01-28T17:27:00.906Z,2.67
2018-01-28T17:29:28.517Z,3.00
2018-01-28T17:31:56.163Z,4.45
2018-01-28T17:34:23.795Z,4.07
2018-01-28T17:36:51.403Z,5.32
2018-01-28T17:39:19.157Z,3.60
2018-01-28T17:41:46.769Z,4.90
2018-01-28T17:44:14.376Z,3.65
2018-01-28T17:46:42.019Z,3.62
2018-01-28T17:49:09.657Z,4.03
2018-01-28T17:51:37.260Z,5.43
2018-01-28T17:54:04.896Z,4.93
2018-01-28T17:56:32.507Z,6.28
2018-01-28T17:59:00.110Z,3.95
2018-01-28T18:01:27.760Z,3.47
2018-01-28T18:03:55.373Z,6.25
2018-01-28T18:06:23.746Z,3.65
2018-01-28T18:08:51.385Z,3.95
2018-01-28T18:11:18.993Z,2.95
2018-01-28T18:13:46.654Z,3.12
2018-01-28T18:16:14.277Z,2.92
2018-01-28T18:18:41.920Z,3.97
2018-01-28T18:21:09.520Z,3.00
2018-01-28T18:23:37.929Z,2.80
2018-01-28T18:26:05.533Z,3.37
2018-01-28T18:28:33.165Z,3.65
2018-01-28T18:31:00.819Z,3.50
2018-01-28T18:33:29.186Z,4.70
2018-01-28T18:35:56.789Z,3.53
2018-01-28T18:38:25.201Z,3.53
2018-01-28T18:40:52.808Z,3.12
2018-01-28T18:43:20.410Z,3.45
2018-01-28T18:45:48.157Z,2.53
2018-01-28T18:48:15.760Z,2.92
2018-01-28T18:50:43.368Z,4.50
2018-01-28T18:53:11.010Z,2.75
2018-01-28T18:55:38.618Z,3.15
2018-01-28T18:58:06.225Z,4.43
2018-01-28T19:00:33.861Z,3.42
2018-01-28T19:03:01.469Z,4.65
2018-01-28T19:05:29.072Z,2.95
2018-01-28T19:07:56.722Z,3.78
2018-01-28T19:10:24.331Z,3.05
2018-01-28T19:12:52.704Z,2.30
2018-01-28T19:15:20.351Z,2.92
2018-01-28T19:17:47.959Z,3.10
2018-01-28T19:20:15.561Z,2.65
2018-01-28T19:22:43.964Z,3.00
2018-01-28T19:25:11.573Z,3.03
2018-01-28T19:27:39.172Z,2.85
2018-01-28T19:30:06.813Z,5.03
2018-01-28T19:32:34.408Z,4.25
2018-01-28T19:35:02.017Z,2.80
2018-01-28T19:37:30.417Z,3.42
2018-01-28T19:39:58.784Z,2.78
2018-01-28T19:42:26.403Z,2.62
2018-01-28T19:44:55.122Z,2.25
2018-01-28T19:47:22.733Z,2.37
2018-01-28T19:49:50.338Z,3.12
2018-01-28T19:52:17.985Z,3.17
2018-01-28T19:54:45.589Z,2.60
2018-01-28T19:57:13.192Z,3.55
2018-01-28T19:59:41.194Z,3.70
2018-01-28T20:02:08.821Z,3.05
2018-01-28T20:04:36.428Z,2.53
2018-01-28T20:07:04.073Z,2.60
2018-01-28T20:09:31.673Z,2.17
2018-01-28T20:11:59.324Z,3.37
2018-01-28T20:14:26.954Z,2.28
2018-01-28T20:16:54.552Z,3.45
2018-01-28T20:19:22.153Z,3.15
2018-01-28T20:21:50.550Z,2.87
2018-01-28T20:24:18.161Z,2.33
2018-01-28T20:26:45.817Z,3.15
2018-01-28T20:29:13.460Z,4.00
2018-01-28T20:31:41.069Z,3.87
2018-01-28T20:34:08.673Z,7.57
2018-01-28T20:36:37.081Z,5.47
2018-01-28T20:39:04.696Z,2.65
2018-01-28T20:41:32.305Z,2.47
2018-01-28T20:44:00.712Z,3.42
2018-01-28T20:46:29.086Z,3.70
2018-01-28T20:48:57.457Z,3.15
2018-01-28T20:51:25.101Z,2.55
2018-01-28T20:53:52.708Z,2.33
2018-01-28T20:56:21.113Z,6.03
2018-01-28T20:58:48.757Z,3.70
2018-01-28T21:01:16.363Z,2.90
2018-01-28T21:03:44.001Z,3.67
2018-01-28T21:06:11.655Z,2.72
2018-01-28T21:08:39.860Z,3.12
2018-01-28T21:11:08.765Z,4.10
2018-01-28T21:13:36.408Z,3.97
2018-01-28T21:16:04.017Z,4.85
2018-01-28T21:18:31.658Z,4.57
2018-01-28T21:20:59.301Z,3.97
2018-01-28T21:23:27.681Z,2.40
2018-01-28T21:25:55.316Z,3.03
2018-01-28T21:28:23.146Z,4.45
2018-01-28T21:30:51.925Z,5.35
2018-01-28T21:33:19.838Z,5.62
2018-01-28T21:35:48.777Z,2.80
2018-01-28T21:38:17.392Z,5.75
2018-01-28T21:40:45.007Z,5.00
2018-01-28T21:43:14.184Z,2.72
2018-01-28T21:45:43.174Z,2.85
2018-01-28T21:48:11.961Z,4.10
2018-01-28T21:50:40.885Z,3.20
2018-01-28T21:53:09.996Z,2.72
2018-01-28T21:55:41.785Z,3.22
2018-01-28T21:58:09.389Z,4.12
2018-01-28T22:00:38.552Z,2.60
2018-01-28T22:03:08.594Z,4.80
2018-01-28T22:05:37.229Z,2.70
2018-01-28T22:08:05.612Z,3.60
2018-01-28T22:10:36.293Z,3.35
2018-01-28T22:13:04.607Z,2.20
2018-01-28T22:15:33.345Z,3.05
2018-01-28T22:18:02.420Z,2.60
2018-01-28T22:20:30.146Z,2.28
2018-01-28T22:22:59.219Z,2.67
2018-01-28T22:25:27.660Z,2.65
2018-01-28T22:27:55.393Z,2.42
2018-01-28T22:30:23.655Z,2.47
2018-01-28T22:32:52.733Z,1.95
2018-01-28T22:35:20.346Z,2.12
2018-01-28T22:37:47.954Z,4.30
2018-01-28T22:40:16.373Z,2.92
2018-01-28T22:42:44.101Z,2.85
2018-01-28T22:45:11.766Z,4.30
2018-01-28T22:47:39.421Z,2.53
2018-01-28T22:50:07.029Z,2.97
2018-01-28T22:52:34.645Z,2.85
2018-01-28T22:55:02.304Z,4.12
2018-01-28T22:57:29.928Z,2.97
2018-01-28T22:59:57.533Z,2.42
2018-01-28T23:02:25.181Z,3.37
2018-01-28T23:04:52.796Z,3.35
2018-01-28T23:07:21.178Z,4.45
2018-01-28T23:09:49.586Z,3.15
2018-01-28T23:12:17.194Z,2.92
2018-01-28T23:14:44.796Z,2.65
2018-01-28T23:17:12.442Z,2.67
2018-01-28T23:19:40.067Z,2.55
2018-01-28T23:22:08.454Z,2.70
2018-01-28T23:24:36.102Z,5.05
2018-01-28T23:27:03.713Z,3.62
2018-01-28T23:29:32.088Z,3.05
2018-01-28T23:32:00.501Z,3.37
2018-01-28T23:34:28.872Z,2.45
2018-01-28T23:36:56.508Z,3.72
2018-01-28T23:39:24.173Z,2.95
2018-01-28T23:41:51.784Z,3.55
2018-01-28T23:44:19.393Z,3.10
2018-01-28T23:46:47.047Z,2.85
2018-01-28T23:49:14.656Z,2.92
2018-01-28T23:51:42.269Z,3.00
2018-01-28T23:54:09.917Z,3.40
2018-01-28T23:56:37.533Z,2.80
2018-01-28T23:59:05.141Z,3.85
